sensor_id;sensor_type;location;lat;lon;timestamp;P1;durP1;ratioP1;P2;durP2;ratioP2
74707;SDS011;63360;50.104;8.074;2023-08-20T00:02:20;10.27;;;4.20;;
74707;SDS011;63360;50.104;8.074;2023-08-20T00:04:49;8.38;;;3.67;;
74707;SDS011;63360;50.104;8.074;2023-08-20T00:07:15;7.10;;;3.95;;
74707;SDS011;63360;50.104;8.074;2023-08-20T00:09:44;7.10;;;3.63;;
74707;SDS011;63360;50.104;8.074;2023-08-20T00:12:11;6.18;;;3.80;;
74707;SDS011;63360;50.104;8.074;2023-08-20T00:15:11;10.43;;;3.63;;
74707;SDS011;63360;50.104;8.074;2023-08-20T00:17:33;8.45;;;3.45;;
74707;SDS011;63360;50.104;8.074;2023-08-20T00:20:01;5.55;;;3.35;;
74707;SDS011;63360;50.104;8.074;2023-08-20T00:22:27;7.80;;;3.55;;
74707;SDS011;63360;50.104;8.074;2023-08-20T00:24:54;5.90;;;3.50;;
74707;SDS011;63360;50.104;8.074;2023-08-20T00:27:21;6.13;;;3.27;;
74707;SDS011;63360;50.104;8.074;2023-08-20T00:29:47;5.53;;;3.13;;
74707;SDS011;63360;50.104;8.074;2023-08-20T00:32:14;4.68;;;3.20;;
74707;SDS011;63360;50.104;8.074;2023-08-20T00:34:40;6.72;;;3.13;;
74707;SDS011;63360;50.104;8.074;2023-08-20T00:37:07;7.43;;;3.28;;
74707;SDS011;63360;50.104;8.074;2023-08-20T00:39:34;4.50;;;2.77;;
74707;SDS011;63360;50.104;8.074;2023-08-20T00:42:00;8.70;;;3.13;;
74707;SDS011;63360;50.104;8.074;2023-08-20T00:44:26;6.88;;;3.22;;
74707;SDS011;63360;50.104;8.074;2023-08-20T00:46:53;6.45;;;3.10;;
74707;SDS011;63360;50.104;8.074;2023-08-20T00:49:19;5.55;;;3.38;;
74707;SDS011;63360;50.104;8.074;2023-08-20T00:51:46;7.03;;;3.40;;
74707;SDS011;63360;50.104;8.074;2023-08-20T00:54:12;5.88;;;3.58;;
74707;SDS011;63360;50.104;8.074;2023-08-20T00:56:39;5.93;;;3.00;;
74707;SDS011;63360;50.104;8.074;2023-08-20T00:59:05;5.55;;;3.22;;
74707;SDS011;63360;50.104;8.074;2023-08-20T01:01:31;9.48;;;3.63;;
74707;SDS011;63360;50.104;8.074;2023-08-20T01:03:58;6.47;;;3.90;;
74707;SDS011;63360;50.104;8.074;2023-08-20T01:06:30;6.93;;;3.35;;
74707;SDS011;63360;50.104;8.074;2023-08-20T01:09:05;6.88;;;3.38;;
74707;SDS011;63360;50.104;8.074;2023-08-20T01:11:33;6.30;;;3.40;;
74707;SDS011;63360;50.104;8.074;2023-08-20T01:14:02;5.25;;;3.45;;
74707;SDS011;63360;50.104;8.074;2023-08-20T01:16:29;8.00;;;3.77;;
74707;SDS011;63360;50.104;8.074;2023-08-20T01:18:55;7.95;;;3.92;;
74707;SDS011;63360;50.104;8.074;2023-08-20T01:21:37;9.55;;;4.20;;
74707;SDS011;63360;50.104;8.074;2023-08-20T01:24:13;7.10;;;4.13;;
74707;SDS011;63360;50.104;8.074;2023-08-20T01:29:14;7.30;;;3.67;;
74707;SDS011;63360;50.104;8.074;2023-08-20T01:31:40;7.95;;;4.13;;
74707;SDS011;63360;50.104;8.074;2023-08-20T01:34:08;7.43;;;4.18;;
74707;SDS011;63360;50.104;8.074;2023-08-20T01:36:34;7.05;;;3.95;;
74707;SDS011;63360;50.104;8.074;2023-08-20T01:39:01;7.05;;;3.47;;
74707;SDS011;63360;50.104;8.074;2023-08-20T01:41:27;6.93;;;3.70;;
74707;SDS011;63360;50.104;8.074;2023-08-20T01:43:53;9.07;;;3.60;;
74707;SDS011;63360;50.104;8.074;2023-08-20T01:46:19;9.07;;;3.05;;
74707;SDS011;63360;50.104;8.074;2023-08-20T01:48:46;6.70;;;3.72;;
74707;SDS011;63360;50.104;8.074;2023-08-20T01:51:12;5.85;;;3.20;;
74707;SDS011;63360;50.104;8.074;2023-08-20T01:53:39;7.87;;;3.83;;
74707;SDS011;63360;50.104;8.074;2023-08-20T01:56:10;8.73;;;3.85;;
74707;SDS011;63360;50.104;8.074;2023-08-20T01:58:36;12.05;;;3.63;;
74707;SDS011;63360;50.104;8.074;2023-08-20T02:01:02;5.93;;;3.28;;
74707;SDS011;63360;50.104;8.074;2023-08-20T02:03:29;5.78;;;3.25;;
74707;SDS011;63360;50.104;8.074;2023-08-20T02:05:55;6.40;;;3.30;;
74707;SDS011;63360;50.104;8.074;2023-08-20T02:08:22;9.35;;;3.45;;
74707;SDS011;63360;50.104;8.074;2023-08-20T02:10:48;6.15;;;3.03;;
74707;SDS011;63360;50.104;8.074;2023-08-20T02:13:15;6.35;;;2.90;;
74707;SDS011;63360;50.104;8.074;2023-08-20T02:15:41;4.75;;;2.65;;
74707;SDS011;63360;50.104;8.074;2023-08-20T02:18:08;8.60;;;2.87;;
74707;SDS011;63360;50.104;8.074;2023-08-20T02:20:34;7.20;;;2.90;;
74707;SDS011;63360;50.104;8.074;2023-08-20T02:23:01;5.60;;;2.70;;
74707;SDS011;63360;50.104;8.074;2023-08-20T02:25:27;6.00;;;2.92;;
74707;SDS011;63360;50.104;8.074;2023-08-20T02:27:54;4.40;;;2.55;;
74707;SDS011;63360;50.104;8.074;2023-08-20T02:30:20;6.00;;;3.00;;
74707;SDS011;63360;50.104;8.074;2023-08-20T02:32:46;5.90;;;2.90;;
74707;SDS011;63360;50.104;8.074;2023-08-20T02:35:13;6.13;;;2.80;;
74707;SDS011;63360;50.104;8.074;2023-08-20T02:37:41;5.40;;;3.20;;
74707;SDS011;63360;50.104;8.074;2023-08-20T02:40:08;5.07;;;3.30;;
74707;SDS011;63360;50.104;8.074;2023-08-20T02:42:34;6.00;;;3.43;;
74707;SDS011;63360;50.104;8.074;2023-08-20T02:45:01;6.00;;;3.00;;
74707;SDS011;63360;50.104;8.074;2023-08-20T02:47:27;4.63;;;3.10;;
74707;SDS011;63360;50.104;8.074;2023-08-20T02:49:53;6.03;;;3.30;;
74707;SDS011;63360;50.104;8.074;2023-08-20T02:52:20;5.70;;;3.00;;
74707;SDS011;63360;50.104;8.074;2023-08-20T02:54:46;7.53;;;3.30;;
74707;SDS011;63360;50.104;8.074;2023-08-20T02:57:12;6.43;;;3.25;;
74707;SDS011;63360;50.104;8.074;2023-08-20T02:59:39;8.32;;;3.50;;
74707;SDS011;63360;50.104;8.074;2023-08-20T03:02:05;6.60;;;3.15;;
74707;SDS011;63360;50.104;8.074;2023-08-20T03:04:31;6.50;;;3.35;;
74707;SDS011;63360;50.104;8.074;2023-08-20T03:06:58;8.97;;;4.13;;
74707;SDS011;63360;50.104;8.074;2023-08-20T03:09:24;5.88;;;3.65;;
74707;SDS011;63360;50.104;8.074;2023-08-20T03:11:50;8.43;;;3.90;;
74707;SDS011;63360;50.104;8.074;2023-08-20T03:14:17;6.63;;;3.80;;
74707;SDS011;63360;50.104;8.074;2023-08-20T03:16:43;8.68;;;3.47;;
74707;SDS011;63360;50.104;8.074;2023-08-20T03:19:09;8.80;;;3.80;;
74707;SDS011;63360;50.104;8.074;2023-08-20T03:21:36;7.50;;;3.78;;
74707;SDS011;63360;50.104;8.074;2023-08-20T03:24:02;9.98;;;3.95;;
74707;SDS011;63360;50.104;8.074;2023-08-20T03:26:29;7.93;;;3.78;;
74707;SDS011;63360;50.104;8.074;2023-08-20T03:28:55;6.80;;;3.95;;
74707;SDS011;63360;50.104;8.074;2023-08-20T03:31:21;6.70;;;4.27;;
74707;SDS011;63360;50.104;8.074;2023-08-20T03:33:48;7.88;;;4.20;;
74707;SDS011;63360;50.104;8.074;2023-08-20T03:36:14;7.72;;;4.28;;
74707;SDS011;63360;50.104;8.074;2023-08-20T03:38:41;7.65;;;4.35;;
74707;SDS011;63360;50.104;8.074;2023-08-20T03:41:07;9.00;;;4.15;;
74707;SDS011;63360;50.104;8.074;2023-08-20T03:43:34;7.73;;;4.50;;
74707;SDS011;63360;50.104;8.074;2023-08-20T03:46:00;7.25;;;4.53;;
74707;SDS011;63360;50.104;8.074;2023-08-20T03:48:27;7.15;;;4.38;;
74707;SDS011;63360;50.104;8.074;2023-08-20T03:50:53;6.28;;;4.00;;
74707;SDS011;63360;50.104;8.074;2023-08-20T03:53:19;7.97;;;4.10;;
74707;SDS011;63360;50.104;8.074;2023-08-20T03:55:49;6.73;;;4.00;;
74707;SDS011;63360;50.104;8.074;2023-08-20T03:58:16;7.63;;;4.25;;
74707;SDS011;63360;50.104;8.074;2023-08-20T04:00:42;9.15;;;4.40;;
74707;SDS011;63360;50.104;8.074;2023-08-20T04:03:09;6.75;;;4.00;;
74707;SDS011;63360;50.104;8.074;2023-08-20T04:05:36;7.63;;;4.40;;
74707;SDS011;63360;50.104;8.074;2023-08-20T04:08:03;7.43;;;4.23;;
74707;SDS011;63360;50.104;8.074;2023-08-20T04:10:30;10.00;;;4.88;;
74707;SDS011;63360;50.104;8.074;2023-08-20T04:12:56;8.30;;;4.70;;
74707;SDS011;63360;50.104;8.074;2023-08-20T04:15:22;7.78;;;4.45;;
74707;SDS011;63360;50.104;8.074;2023-08-20T04:17:49;6.57;;;4.00;;
74707;SDS011;63360;50.104;8.074;2023-08-20T04:20:15;7.60;;;4.60;;
74707;SDS011;63360;50.104;8.074;2023-08-20T04:22:41;8.02;;;4.53;;
74707;SDS011;63360;50.104;8.074;2023-08-20T04:25:08;8.98;;;4.55;;
74707;SDS011;63360;50.104;8.074;2023-08-20T04:27:34;8.00;;;4.25;;
74707;SDS011;63360;50.104;8.074;2023-08-20T04:30:01;8.65;;;4.25;;
74707;SDS011;63360;50.104;8.074;2023-08-20T04:32:27;7.80;;;4.27;;
74707;SDS011;63360;50.104;8.074;2023-08-20T04:34:54;6.78;;;4.35;;
74707;SDS011;63360;50.104;8.074;2023-08-20T04:37:20;7.15;;;4.10;;
74707;SDS011;63360;50.104;8.074;2023-08-20T04:39:47;7.88;;;4.10;;
74707;SDS011;63360;50.104;8.074;2023-08-20T04:42:13;7.80;;;4.53;;
74707;SDS011;63360;50.104;8.074;2023-08-20T04:44:39;8.30;;;4.30;;
74707;SDS011;63360;50.104;8.074;2023-08-20T04:47:06;8.05;;;4.50;;
74707;SDS011;63360;50.104;8.074;2023-08-20T04:49:36;7.95;;;4.55;;
74707;SDS011;63360;50.104;8.074;2023-08-20T04:52:03;7.65;;;4.40;;
74707;SDS011;63360;50.104;8.074;2023-08-20T04:54:29;7.10;;;4.18;;
74707;SDS011;63360;50.104;8.074;2023-08-20T04:56:55;7.13;;;4.43;;
74707;SDS011;63360;50.104;8.074;2023-08-20T04:59:22;6.38;;;4.30;;
74707;SDS011;63360;50.104;8.074;2023-08-20T05:01:48;9.80;;;4.60;;
74707;SDS011;63360;50.104;8.074;2023-08-20T05:04:14;9.95;;;4.38;;
74707;SDS011;63360;50.104;8.074;2023-08-20T05:06:41;9.43;;;4.70;;
74707;SDS011;63360;50.104;8.074;2023-08-20T05:09:07;8.80;;;4.80;;
74707;SDS011;63360;50.104;8.074;2023-08-20T05:11:33;9.18;;;4.55;;
74707;SDS011;63360;50.104;8.074;2023-08-20T05:14:00;8.85;;;4.47;;
74707;SDS011;63360;50.104;8.074;2023-08-20T05:16:26;7.75;;;4.60;;
74707;SDS011;63360;50.104;8.074;2023-08-20T05:18:53;9.50;;;4.88;;
74707;SDS011;63360;50.104;8.074;2023-08-20T05:21:19;10.57;;;4.30;;
74707;SDS011;63360;50.104;8.074;2023-08-20T05:23:45;6.43;;;4.28;;
74707;SDS011;63360;50.104;8.074;2023-08-20T05:26:12;7.40;;;4.18;;
74707;SDS011;63360;50.104;8.074;2023-08-20T05:28:38;7.00;;;4.57;;
74707;SDS011;63360;50.104;8.074;2023-08-20T05:31:04;7.72;;;4.80;;
74707;SDS011;63360;50.104;8.074;2023-08-20T05:33:31;6.93;;;4.57;;
74707;SDS011;63360;50.104;8.074;2023-08-20T05:35:57;5.65;;;3.95;;
74707;SDS011;63360;50.104;8.074;2023-08-20T05:38:24;8.25;;;4.93;;
74707;SDS011;63360;50.104;8.074;2023-08-20T05:40:50;7.57;;;4.80;;
74707;SDS011;63360;50.104;8.074;2023-08-20T05:43:17;6.90;;;4.57;;
74707;SDS011;63360;50.104;8.074;2023-08-20T05:45:43;9.20;;;4.90;;
74707;SDS011;63360;50.104;8.074;2023-08-20T05:48:09;8.25;;;4.43;;
74707;SDS011;63360;50.104;8.074;2023-08-20T05:50:36;6.68;;;4.68;;
74707;SDS011;63360;50.104;8.074;2023-08-20T05:53:02;7.30;;;4.68;;
74707;SDS011;63360;50.104;8.074;2023-08-20T05:55:28;7.65;;;4.50;;
74707;SDS011;63360;50.104;8.074;2023-08-20T05:57:55;7.60;;;4.70;;
74707;SDS011;63360;50.104;8.074;2023-08-20T06:00:21;8.60;;;4.50;;
74707;SDS011;63360;50.104;8.074;2023-08-20T06:02:48;7.30;;;4.90;;
74707;SDS011;63360;50.104;8.074;2023-08-20T06:05:14;6.90;;;4.77;;
74707;SDS011;63360;50.104;8.074;2023-08-20T06:07:41;6.15;;;4.38;;
74707;SDS011;63360;50.104;8.074;2023-08-20T06:10:07;6.75;;;4.65;;
74707;SDS011;63360;50.104;8.074;2023-08-20T06:12:33;8.90;;;5.38;;
74707;SDS011;63360;50.104;8.074;2023-08-20T06:15:00;11.50;;;5.35;;
74707;SDS011;63360;50.104;8.074;2023-08-20T06:17:27;8.43;;;5.00;;
74707;SDS011;63360;50.104;8.074;2023-08-20T06:19:53;9.68;;;5.70;;
74707;SDS011;63360;50.104;8.074;2023-08-20T06:22:19;9.07;;;5.50;;
74707;SDS011;63360;50.104;8.074;2023-08-20T06:24:46;9.18;;;5.32;;
74707;SDS011;63360;50.104;8.074;2023-08-20T06:27:12;9.93;;;5.80;;
74707;SDS011;63360;50.104;8.074;2023-08-20T06:29:38;7.47;;;5.07;;
74707;SDS011;63360;50.104;8.074;2023-08-20T06:32:05;9.55;;;5.18;;
74707;SDS011;63360;50.104;8.074;2023-08-20T06:34:33;9.52;;;5.82;;
74707;SDS011;63360;50.104;8.074;2023-08-20T06:36:59;7.25;;;5.15;;
74707;SDS011;63360;50.104;8.074;2023-08-20T06:39:26;7.82;;;5.93;;
74707;SDS011;63360;50.104;8.074;2023-08-20T06:41:52;8.80;;;5.57;;
74707;SDS011;63360;50.104;8.074;2023-08-20T06:44:18;8.70;;;5.47;;
74707;SDS011;63360;50.104;8.074;2023-08-20T06:46:45;8.63;;;5.97;;
74707;SDS011;63360;50.104;8.074;2023-08-20T06:49:11;9.75;;;6.40;;
74707;SDS011;63360;50.104;8.074;2023-08-20T06:51:37;9.88;;;6.35;;
74707;SDS011;63360;50.104;8.074;2023-08-20T06:54:04;10.10;;;6.40;;
74707;SDS011;63360;50.104;8.074;2023-08-20T06:56:32;9.93;;;6.50;;
74707;SDS011;63360;50.104;8.074;2023-08-20T06:58:59;9.23;;;6.43;;
74707;SDS011;63360;50.104;8.074;2023-08-20T07:01:26;9.50;;;7.20;;
74707;SDS011;63360;50.104;8.074;2023-08-20T07:03:52;11.00;;;6.90;;
74707;SDS011;63360;50.104;8.074;2023-08-20T07:06:19;12.43;;;7.70;;
74707;SDS011;63360;50.104;8.074;2023-08-20T07:08:45;10.32;;;7.40;;
74707;SDS011;63360;50.104;8.074;2023-08-20T07:11:11;13.25;;;7.95;;
74707;SDS011;63360;50.104;8.074;2023-08-20T07:13:38;10.95;;;7.63;;
74707;SDS011;63360;50.104;8.074;2023-08-20T07:16:04;10.27;;;7.90;;
74707;SDS011;63360;50.104;8.074;2023-08-20T07:18:31;10.80;;;8.13;;
74707;SDS011;63360;50.104;8.074;2023-08-20T07:20:57;10.82;;;7.38;;
74707;SDS011;63360;50.104;8.074;2023-08-20T07:23:23;11.68;;;7.60;;
74707;SDS011;63360;50.104;8.074;2023-08-20T07:25:50;12.35;;;7.60;;
74707;SDS011;63360;50.104;8.074;2023-08-20T07:28:18;12.32;;;7.88;;
74707;SDS011;63360;50.104;8.074;2023-08-20T07:31:07;13.10;;;8.33;;
74707;SDS011;63360;50.104;8.074;2023-08-20T07:33:34;11.90;;;7.88;;
74707;SDS011;63360;50.104;8.074;2023-08-20T07:36:00;9.93;;;7.70;;
74707;SDS011;63360;50.104;8.074;2023-08-20T07:38:26;12.18;;;7.55;;
74707;SDS011;63360;50.104;8.074;2023-08-20T07:40:53;11.90;;;7.85;;
74707;SDS011;63360;50.104;8.074;2023-08-20T07:43:19;10.43;;;8.50;;
74707;SDS011;63360;50.104;8.074;2023-08-20T07:45:45;12.43;;;8.02;;
74707;SDS011;63360;50.104;8.074;2023-08-20T07:48:12;12.73;;;7.90;;
74707;SDS011;63360;50.104;8.074;2023-08-20T07:50:39;11.23;;;8.13;;
74707;SDS011;63360;50.104;8.074;2023-08-20T07:53:05;12.20;;;8.15;;
74707;SDS011;63360;50.104;8.074;2023-08-20T07:55:31;11.30;;;7.67;;
74707;SDS011;63360;50.104;8.074;2023-08-20T07:57:58;12.05;;;7.88;;
74707;SDS011;63360;50.104;8.074;2023-08-20T08:00:25;11.68;;;8.25;;
74707;SDS011;63360;50.104;8.074;2023-08-20T08:02:51;12.73;;;8.48;;
74707;SDS011;63360;50.104;8.074;2023-08-20T08:05:17;12.85;;;7.82;;
74707;SDS011;63360;50.104;8.074;2023-08-20T08:07:44;12.50;;;8.00;;
74707;SDS011;63360;50.104;8.074;2023-08-20T08:10:10;13.52;;;8.23;;
74707;SDS011;63360;50.104;8.074;2023-08-20T08:12:36;11.50;;;7.85;;
74707;SDS011;63360;50.104;8.074;2023-08-20T08:15:03;11.45;;;8.00;;
74707;SDS011;63360;50.104;8.074;2023-08-20T08:17:29;12.65;;;7.50;;
74707;SDS011;63360;50.104;8.074;2023-08-20T08:19:55;10.60;;;7.37;;
74707;SDS011;63360;50.104;8.074;2023-08-20T08:22:23;9.93;;;6.70;;
74707;SDS011;63360;50.104;8.074;2023-08-20T08:24:49;12.52;;;7.68;;
74707;SDS011;63360;50.104;8.074;2023-08-20T08:27:15;9.95;;;6.82;;
74707;SDS011;63360;50.104;8.074;2023-08-20T08:29:41;9.63;;;6.50;;
74707;SDS011;63360;50.104;8.074;2023-08-20T08:32:08;8.40;;;6.33;;
74707;SDS011;63360;50.104;8.074;2023-08-20T08:34:34;11.32;;;6.22;;
74707;SDS011;63360;50.104;8.074;2023-08-20T08:37:01;15.05;;;6.80;;
74707;SDS011;63360;50.104;8.074;2023-08-20T08:39:27;9.85;;;6.68;;
74707;SDS011;63360;50.104;8.074;2023-08-20T08:41:54;7.50;;;6.03;;
74707;SDS011;63360;50.104;8.074;2023-08-20T08:44:24;8.00;;;5.83;;
74707;SDS011;63360;50.104;8.074;2023-08-20T08:46:51;9.52;;;5.78;;
74707;SDS011;63360;50.104;8.074;2023-08-20T08:49:17;8.43;;;5.95;;
74707;SDS011;63360;50.104;8.074;2023-08-20T08:51:44;7.57;;;5.43;;
74707;SDS011;63360;50.104;8.074;2023-08-20T08:54:12;8.80;;;6.07;;
74707;SDS011;63360;50.104;8.074;2023-08-20T08:56:39;9.27;;;6.00;;
74707;SDS011;63360;50.104;8.074;2023-08-20T08:59:05;9.52;;;5.50;;
74707;SDS011;63360;50.104;8.074;2023-08-20T09:01:32;7.85;;;5.10;;
74707;SDS011;63360;50.104;8.074;2023-08-20T09:03:59;8.50;;;5.25;;
74707;SDS011;63360;50.104;8.074;2023-08-20T09:06:26;7.00;;;5.18;;
74707;SDS011;63360;50.104;8.074;2023-08-20T09:08:55;8.03;;;4.33;;
74707;SDS011;63360;50.104;8.074;2023-08-20T09:11:34;7.38;;;4.78;;
74707;SDS011;63360;50.104;8.074;2023-08-20T09:14:00;7.60;;;4.88;;
74707;SDS011;63360;50.104;8.074;2023-08-20T09:16:29;8.43;;;4.80;;
74707;SDS011;63360;50.104;8.074;2023-08-20T09:18:57;7.60;;;4.97;;
74707;SDS011;63360;50.104;8.074;2023-08-20T09:21:27;7.97;;;4.50;;
74707;SDS011;63360;50.104;8.074;2023-08-20T09:23:57;7.22;;;4.40;;
74707;SDS011;63360;50.104;8.074;2023-08-20T09:26:26;7.93;;;5.15;;
74707;SDS011;63360;50.104;8.074;2023-08-20T09:28:54;6.15;;;4.28;;
74707;SDS011;63360;50.104;8.074;2023-08-20T09:31:20;6.25;;;4.40;;
74707;SDS011;63360;50.104;8.074;2023-08-20T09:34:02;5.93;;;4.10;;
74707;SDS011;63360;50.104;8.074;2023-08-20T09:36:32;6.65;;;4.45;;
74707;SDS011;63360;50.104;8.074;2023-08-20T09:39:00;8.00;;;4.70;;
74707;SDS011;63360;50.104;8.074;2023-08-20T09:41:26;6.38;;;4.72;;
74707;SDS011;63360;50.104;8.074;2023-08-20T09:43:55;7.68;;;4.80;;
74707;SDS011;63360;50.104;8.074;2023-08-20T09:46:23;7.87;;;4.60;;
74707;SDS011;63360;50.104;8.074;2023-08-20T09:48:50;7.25;;;4.78;;
74707;SDS011;63360;50.104;8.074;2023-08-20T09:51:19;7.07;;;5.22;;
74707;SDS011;63360;50.104;8.074;2023-08-20T09:53:48;6.70;;;5.00;;
74707;SDS011;63360;50.104;8.074;2023-08-20T09:56:24;7.38;;;5.28;;
74707;SDS011;63360;50.104;8.074;2023-08-20T09:58:53;6.40;;;4.67;;
74707;SDS011;63360;50.104;8.074;2023-08-20T10:01:19;7.40;;;4.78;;
74707;SDS011;63360;50.104;8.074;2023-08-20T10:03:46;5.68;;;4.30;;
74707;SDS011;63360;50.104;8.074;2023-08-20T10:06:12;7.00;;;4.50;;
74707;SDS011;63360;50.104;8.074;2023-08-20T10:08:39;7.65;;;4.30;;
74707;SDS011;63360;50.104;8.074;2023-08-20T10:11:05;6.37;;;4.37;;
74707;SDS011;63360;50.104;8.074;2023-08-20T10:13:32;5.68;;;4.18;;
74707;SDS011;63360;50.104;8.074;2023-08-20T10:15:58;7.18;;;4.20;;
74707;SDS011;63360;50.104;8.074;2023-08-20T10:18:26;6.28;;;4.32;;
74707;SDS011;63360;50.104;8.074;2023-08-20T10:20:52;6.07;;;3.95;;
74707;SDS011;63360;50.104;8.074;2023-08-20T10:23:20;6.67;;;4.03;;
74707;SDS011;63360;50.104;8.074;2023-08-20T10:25:46;6.95;;;4.10;;
74707;SDS011;63360;50.104;8.074;2023-08-20T10:28:24;5.68;;;4.20;;
74707;SDS011;63360;50.104;8.074;2023-08-20T10:31:07;5.72;;;4.00;;
74707;SDS011;63360;50.104;8.074;2023-08-20T10:33:34;6.00;;;3.50;;
74707;SDS011;63360;50.104;8.074;2023-08-20T10:36:07;5.77;;;3.30;;
74707;SDS011;63360;50.104;8.074;2023-08-20T10:38:37;7.00;;;3.78;;
74707;SDS011;63360;50.104;8.074;2023-08-20T10:41:07;8.55;;;5.63;;
74707;SDS011;63360;50.104;8.074;2023-08-20T10:43:35;5.50;;;3.60;;
74707;SDS011;63360;50.104;8.074;2023-08-20T10:48:36;3.87;;;2.90;;
74707;SDS011;63360;50.104;8.074;2023-08-20T10:51:06;7.13;;;3.65;;
74707;SDS011;63360;50.104;8.074;2023-08-20T10:53:33;4.57;;;3.08;;
74707;SDS011;63360;50.104;8.074;2023-08-20T10:56:09;6.95;;;3.05;;
74707;SDS011;63360;50.104;8.074;2023-08-20T10:58:38;5.45;;;3.50;;
74707;SDS011;63360;50.104;8.074;2023-08-20T11:03:44;5.63;;;3.33;;
74707;SDS011;63360;50.104;8.074;2023-08-20T11:06:11;4.85;;;3.50;;
74707;SDS011;63360;50.104;8.074;2023-08-20T11:08:38;6.28;;;3.58;;
74707;SDS011;63360;50.104;8.074;2023-08-20T11:11:06;6.80;;;3.65;;
74707;SDS011;63360;50.104;8.074;2023-08-20T11:13:33;5.47;;;3.30;;
74707;SDS011;63360;50.104;8.074;2023-08-20T11:16:01;4.70;;;3.40;;
74707;SDS011;63360;50.104;8.074;2023-08-20T11:18:27;6.15;;;3.38;;
74707;SDS011;63360;50.104;8.074;2023-08-20T11:20:54;5.50;;;3.40;;
74707;SDS011;63360;50.104;8.074;2023-08-20T11:23:21;4.30;;;3.28;;
74707;SDS011;63360;50.104;8.074;2023-08-20T11:25:48;6.90;;;3.37;;
74707;SDS011;63360;50.104;8.074;2023-08-20T11:28:14;6.85;;;3.35;;
74707;SDS011;63360;50.104;8.074;2023-08-20T11:30:41;4.90;;;3.10;;
74707;SDS011;63360;50.104;8.074;2023-08-20T11:33:07;6.47;;;3.47;;
74707;SDS011;63360;50.104;8.074;2023-08-20T11:35:34;6.22;;;3.35;;
74707;SDS011;63360;50.104;8.074;2023-08-20T11:38:02;7.30;;;3.60;;
74707;SDS011;63360;50.104;8.074;2023-08-20T11:40:28;5.75;;;3.47;;
74707;SDS011;63360;50.104;8.074;2023-08-20T11:42:55;5.22;;;3.67;;
74707;SDS011;63360;50.104;8.074;2023-08-20T11:45:21;6.82;;;3.78;;
74707;SDS011;63360;50.104;8.074;2023-08-20T11:47:48;7.03;;;3.80;;
74707;SDS011;63360;50.104;8.074;2023-08-20T11:50:14;5.03;;;3.37;;
74707;SDS011;63360;50.104;8.074;2023-08-20T11:52:40;4.93;;;3.80;;
74707;SDS011;63360;50.104;8.074;2023-08-20T11:55:07;6.68;;;3.90;;
74707;SDS011;63360;50.104;8.074;2023-08-20T11:57:33;5.93;;;3.80;;
74707;SDS011;63360;50.104;8.074;2023-08-20T12:00:04;7.90;;;4.20;;
74707;SDS011;63360;50.104;8.074;2023-08-20T12:02:30;6.50;;;3.93;;
74707;SDS011;63360;50.104;8.074;2023-08-20T12:05:06;6.35;;;3.92;;
74707;SDS011;63360;50.104;8.074;2023-08-20T12:07:32;5.25;;;3.58;;
74707;SDS011;63360;50.104;8.074;2023-08-20T12:10:01;5.85;;;3.60;;
74707;SDS011;63360;50.104;8.074;2023-08-20T12:12:44;5.88;;;3.72;;
74707;SDS011;63360;50.104;8.074;2023-08-20T12:15:14;8.20;;;3.60;;
74707;SDS011;63360;50.104;8.074;2023-08-20T12:17:41;5.78;;;3.65;;
74707;SDS011;63360;50.104;8.074;2023-08-20T12:20:07;6.75;;;4.05;;
74707;SDS011;63360;50.104;8.074;2023-08-20T12:22:40;8.35;;;4.00;;
74707;SDS011;63360;50.104;8.074;2023-08-20T12:25:06;7.90;;;3.90;;
74707;SDS011;63360;50.104;8.074;2023-08-20T12:27:33;7.10;;;4.20;;
74707;SDS011;63360;50.104;8.074;2023-08-20T12:30:00;6.90;;;4.10;;
74707;SDS011;63360;50.104;8.074;2023-08-20T12:32:26;5.95;;;4.47;;
74707;SDS011;63360;50.104;8.074;2023-08-20T12:34:53;6.03;;;3.90;;
74707;SDS011;63360;50.104;8.074;2023-08-20T12:37:19;6.10;;;3.67;;
74707;SDS011;63360;50.104;8.074;2023-08-20T12:39:45;5.83;;;3.90;;
74707;SDS011;63360;50.104;8.074;2023-08-20T12:42:12;7.07;;;4.30;;
74707;SDS011;63360;50.104;8.074;2023-08-20T12:44:38;7.95;;;4.90;;
74707;SDS011;63360;50.104;8.074;2023-08-20T12:47:04;7.38;;;4.72;;
74707;SDS011;63360;50.104;8.074;2023-08-20T12:49:31;6.47;;;3.83;;
74707;SDS011;63360;50.104;8.074;2023-08-20T12:51:57;5.10;;;3.60;;
74707;SDS011;63360;50.104;8.074;2023-08-20T12:54:23;5.88;;;3.20;;
74707;SDS011;63360;50.104;8.074;2023-08-20T12:56:50;6.10;;;4.30;;
74707;SDS011;63360;50.104;8.074;2023-08-20T12:59:16;6.88;;;4.28;;
74707;SDS011;63360;50.104;8.074;2023-08-20T13:01:42;5.80;;;4.55;;
74707;SDS011;63360;50.104;8.074;2023-08-20T13:04:09;7.30;;;4.30;;
74707;SDS011;63360;50.104;8.074;2023-08-20T13:06:36;6.55;;;3.97;;
74707;SDS011;63360;50.104;8.074;2023-08-20T13:09:03;6.40;;;4.15;;
74707;SDS011;63360;50.104;8.074;2023-08-20T13:11:29;7.20;;;4.25;;
74707;SDS011;63360;50.104;8.074;2023-08-20T13:13:57;6.60;;;3.92;;
74707;SDS011;63360;50.104;8.074;2023-08-20T13:16:23;7.43;;;3.90;;
74707;SDS011;63360;50.104;8.074;2023-08-20T13:18:50;5.20;;;3.80;;
74707;SDS011;63360;50.104;8.074;2023-08-20T13:21:16;6.60;;;4.15;;
74707;SDS011;63360;50.104;8.074;2023-08-20T13:23:42;6.88;;;3.75;;
74707;SDS011;63360;50.104;8.074;2023-08-20T13:26:10;5.85;;;3.70;;
74707;SDS011;63360;50.104;8.074;2023-08-20T13:28:36;6.07;;;4.10;;
74707;SDS011;63360;50.104;8.074;2023-08-20T13:31:03;8.32;;;3.92;;
74707;SDS011;63360;50.104;8.074;2023-08-20T13:33:29;6.68;;;4.05;;
74707;SDS011;63360;50.104;8.074;2023-08-20T13:35:55;8.20;;;4.00;;
74707;SDS011;63360;50.104;8.074;2023-08-20T13:38:23;5.40;;;3.92;;
74707;SDS011;63360;50.104;8.074;2023-08-20T13:40:50;6.07;;;4.10;;
74707;SDS011;63360;50.104;8.074;2023-08-20T13:43:16;8.27;;;3.88;;
74707;SDS011;63360;50.104;8.074;2023-08-20T13:45:42;5.68;;;3.78;;
74707;SDS011;63360;50.104;8.074;2023-08-20T13:48:09;6.65;;;4.22;;
74707;SDS011;63360;50.104;8.074;2023-08-20T13:50:35;8.30;;;4.07;;
74707;SDS011;63360;50.104;8.074;2023-08-20T13:53:02;7.20;;;4.27;;
74707;SDS011;63360;50.104;8.074;2023-08-20T13:55:28;5.95;;;3.90;;
74707;SDS011;63360;50.104;8.074;2023-08-20T13:57:57;5.80;;;3.83;;
74707;SDS011;63360;50.104;8.074;2023-08-20T14:00:23;6.82;;;3.70;;
74707;SDS011;63360;50.104;8.074;2023-08-20T14:02:49;6.18;;;3.60;;
74707;SDS011;63360;50.104;8.074;2023-08-20T14:05:16;6.23;;;3.63;;
74707;SDS011;63360;50.104;8.074;2023-08-20T14:07:42;5.97;;;3.50;;
74707;SDS011;63360;50.104;8.074;2023-08-20T14:10:09;5.88;;;4.07;;
74707;SDS011;63360;50.104;8.074;2023-08-20T14:12:35;6.75;;;3.85;;
74707;SDS011;63360;50.104;8.074;2023-08-20T14:15:06;4.68;;;3.72;;
74707;SDS011;63360;50.104;8.074;2023-08-20T14:17:33;6.20;;;3.70;;
74707;SDS011;63360;50.104;8.074;2023-08-20T14:19:59;6.70;;;4.20;;
74707;SDS011;63360;50.104;8.074;2023-08-20T14:22:25;6.40;;;3.85;;
74707;SDS011;63360;50.104;8.074;2023-08-20T14:24:52;7.35;;;3.75;;
74707;SDS011;63360;50.104;8.074;2023-08-20T14:27:18;6.78;;;3.90;;
74707;SDS011;63360;50.104;8.074;2023-08-20T14:29:44;6.43;;;3.60;;
74707;SDS011;63360;50.104;8.074;2023-08-20T14:32:11;5.57;;;3.97;;
74707;SDS011;63360;50.104;8.074;2023-08-20T14:34:37;5.95;;;3.63;;
74707;SDS011;63360;50.104;8.074;2023-08-20T14:37:03;8.30;;;3.85;;
74707;SDS011;63360;50.104;8.074;2023-08-20T14:39:30;6.75;;;4.13;;
74707;SDS011;63360;50.104;8.074;2023-08-20T14:41:58;6.40;;;4.00;;
74707;SDS011;63360;50.104;8.074;2023-08-20T14:44:24;6.45;;;3.97;;
74707;SDS011;63360;50.104;8.074;2023-08-20T14:46:50;6.75;;;3.80;;
74707;SDS011;63360;50.104;8.074;2023-08-20T14:49:17;6.00;;;4.25;;
74707;SDS011;63360;50.104;8.074;2023-08-20T14:51:44;7.93;;;3.70;;
74707;SDS011;63360;50.104;8.074;2023-08-20T14:54:11;8.00;;;3.57;;